createdAt,value
2023-04-28T00:00:44.857Z,83.71
2023-04-28T00:05:47.620Z,82.42
2023-04-28T00:10:49.386Z,84.13
2023-04-28T00:15:53.116Z,83.85
2023-04-28T00:20:57.841Z,83.23
2023-04-28T00:25:59.556Z,83.38
2023-04-28T00:31:01.380Z,83.54
2023-04-28T00:36:03.345Z,85.23
2023-04-28T00:41:06.727Z,86.57
2023-04-28T00:46:08.475Z,86.29
2023-04-28T00:51:10.432Z,85.27
2023-04-28T00:56:12.807Z,84.37
2023-04-28T01:01:14.633Z,85.28
2023-04-28T01:06:17.260Z,87.40
2023-04-28T01:11:19.471Z,88.87
2023-04-28T01:16:40.821Z,88.16
2023-04-28T01:21:43.318Z,87.04
2023-04-28T01:27:00.052Z,84.83
2023-04-28T01:32:03.078Z,84.01
2023-04-28T01:37:04.881Z,81.62
2023-04-28T01:42:06.877Z,82.07
2023-04-28T01:47:08.673Z,82.24
2023-04-28T01:52:10.567Z,81.42
2023-04-28T01:57:12.235Z,81.21
2023-04-28T02:02:14.428Z,82.11
2023-04-28T02:07:17.293Z,83.18
2023-04-28T02:12:19.016Z,83.30
2023-04-28T02:17:21.080Z,84.08
2023-04-28T02:22:23.393Z,84.59
2023-04-28T02:27:25.166Z,82.66
2023-04-28T02:32:26.885Z,83.50
2023-04-28T02:37:28.562Z,83.48
2023-04-28T02:42:30.266Z,83.57
2023-04-28T02:47:31.982Z,83.52
2023-04-28T02:52:33.770Z,81.77
2023-04-28T02:57:35.634Z,82.13
2023-04-28T03:02:38.267Z,82.05
2023-04-28T03:07:40.044Z,80.16
2023-04-28T03:12:41.745Z,80.49
2023-04-28T03:17:44.037Z,78.97
2023-04-28T03:22:45.890Z,77.74
2023-04-28T03:27:47.555Z,78.62
2023-04-28T03:32:49.300Z,79.97
2023-04-28T03:37:51.136Z,79.01
2023-04-28T03:42:53.173Z,77.75
2023-04-28T03:48:02.257Z,78.38
2023-04-28T03:53:05.075Z,78.80
2023-04-28T03:58:07.865Z,77.83
2023-04-28T04:03:10.319Z,74.56
2023-04-28T04:08:12.252Z,75.77
2023-04-28T04:13:13.970Z,73.61
2023-04-28T04:18:18.375Z,71.24
2023-04-28T04:23:42.666Z,70.13
2023-04-28T04:28:44.386Z,69.52
2023-04-28T04:33:46.328Z,67.66
2023-04-28T04:38:48.548Z,67.91
2023-04-28T04:43:52.518Z,67.20
2023-04-28T04:48:55.270Z,67.92
2023-04-28T04:53:57.204Z,68.80
2023-04-28T04:58:59.255Z,66.99
2023-04-28T05:04:21.970Z,67.56
2023-04-28T05:09:24.530Z,66.78
2023-04-28T05:14:26.769Z,66.50
2023-04-28T05:19:28.776Z,66.67
2023-04-28T05:24:30.785Z,64.96
2023-04-28T05:29:32.961Z,64.88
2023-04-28T05:34:34.836Z,63.83
2023-04-28T05:39:36.591Z,66.78
2023-04-28T05:44:42.993Z,64.28
2023-04-28T05:49:53.106Z,62.94
2023-04-28T05:54:54.890Z,62.66
2023-04-28T05:59:56.744Z,62.97
2023-04-28T06:04:58.924Z,62.01
2023-04-28T06:10:01.212Z,59.28
2023-04-28T06:15:03.348Z,60.29
2023-04-28T06:20:06.685Z,56.91
2023-04-28T06:25:09.201Z,56.90
2023-04-28T06:30:22.020Z,57.30
2023-04-28T06:35:23.892Z,56.14
2023-04-28T06:40:25.560Z,59.27
2023-04-28T06:45:30.877Z,54.73
2023-04-28T06:50:32.538Z,55.46
2023-04-28T06:55:34.705Z,53.42
2023-04-28T07:00:36.493Z,53.64
2023-04-28T07:05:38.353Z,55.16
2023-04-28T07:10:40.038Z,54.84
2023-04-28T07:15:42.184Z,50.63
2023-04-28T07:20:43.802Z,50.56
2023-04-28T07:25:45.481Z,50.28
2023-04-28T07:30:47.148Z,50.00
2023-04-28T07:35:49.588Z,52.36
2023-04-28T07:45:54.091Z,49.69
2023-04-28T07:50:55.804Z,46.88
2023-04-28T07:55:57.508Z,47.62
2023-04-28T08:00:59.155Z,48.14
2023-04-28T08:06:01.227Z,46.85
2023-04-28T08:11:03.263Z,45.14
2023-04-28T08:16:05.661Z,45.27
2023-04-28T08:21:07.509Z,44.71
2023-04-28T08:26:09.349Z,44.27
2023-04-28T08:31:11.092Z,44.55
2023-04-28T08:36:14.846Z,44.20
2023-04-28T08:41:17.084Z,44.14
2023-04-28T08:46:22.300Z,44.91
2023-04-28T08:51:35.896Z,45.08
2023-04-28T08:56:38.975Z,44.50
2023-04-28T09:01:40.818Z,43.42
2023-04-28T09:06:42.547Z,44.70
2023-04-28T09:12:11.348Z,43.24
2023-04-28T09:17:14.653Z,43.97
2023-04-28T09:22:26.126Z,42.71
2023-04-28T09:27:29.184Z,41.74
2023-04-28T09:32:31.074Z,43.27
2023-04-28T09:37:34.077Z,42.52
2023-04-28T09:42:46.631Z,40.96
2023-04-28T09:47:48.732Z,41.04
2023-04-28T09:52:59.162Z,39.83
2023-04-28T09:58:06.082Z,41.09
2023-04-28T10:03:09.715Z,40.66
2023-04-28T10:08:12.064Z,41.07
2023-04-28T10:13:19.593Z,41.61
2023-04-28T10:18:23.224Z,43.01
2023-04-28T10:23:58.164Z,45.52
2023-04-28T10:28:59.933Z,52.63
2023-04-28T10:34:22.354Z,56.76
2023-04-28T10:39:24.120Z,58.86
2023-04-28T10:44:28.931Z,64.15
2023-04-28T10:49:57.832Z,67.03
2023-04-28T10:55:28.925Z,71.91
2023-04-28T11:00:30.979Z,77.37
2023-04-28T11:05:34.903Z,77.02
2023-04-28T11:11:10.265Z,79.19
2023-04-28T11:16:17.526Z,74.02
2023-04-28T11:21:20.662Z,79.10
2023-04-28T11:26:23.696Z,81.10
2023-04-28T11:31:26.460Z,78.16
2023-04-28T11:36:32.838Z,72.57
2023-04-28T11:41:36.396Z,72.65
2023-04-28T11:46:54.863Z,68.75
2023-04-28T11:52:00.000Z,71.54
2023-04-28T11:57:04.864Z,75.83
2023-04-28T12:02:07.730Z,71.28
2023-04-28T12:07:13.949Z,65.95
2023-04-28T12:12:40.193Z,68.15
2023-04-28T12:17:52.030Z,67.87
2023-04-28T12:22:53.903Z,69.16
2023-04-28T12:28:04.034Z,70.42
2023-04-28T12:33:05.976Z,69.65
2023-04-28T12:38:11.691Z,64.89
2023-04-28T12:43:13.569Z,68.53
2023-04-28T12:48:15.506Z,70.60
2023-04-28T12:53:17.154Z,67.02
2023-04-28T12:58:18.943Z,68.35
2023-04-28T13:03:21.538Z,74.24
2023-04-28T13:08:23.659Z,73.88
2023-04-28T13:13:25.931Z,71.45
2023-04-28T13:18:27.635Z,74.82
2023-04-28T13:23:29.354Z,75.87
2023-04-28T13:28:31.354Z,76.57
2023-04-28T13:33:33.056Z,74.84
2023-04-28T13:38:35.201Z,77.40
2023-04-28T13:43:37.354Z,79.24
2023-04-28T13:48:40.612Z,77.13
2023-04-28T13:53:42.415Z,78.96
2023-04-28T13:58:44.140Z,78.72
2023-04-28T14:03:46.112Z,79.85
2023-04-28T14:08:48.153Z,84.22
2023-04-28T14:13:50.088Z,81.31
2023-04-28T14:18:52.007Z,87.08
2023-04-28T14:23:53.936Z,84.57
2023-04-28T14:28:55.996Z,81.43
2023-04-28T14:33:57.871Z,83.92
2023-04-28T14:39:00.002Z,83.65
2023-04-28T14:44:01.749Z,81.11
2023-04-28T14:49:03.566Z,80.74
2023-04-28T14:54:05.282Z,82.39
2023-04-28T14:59:07.096Z,79.62
2023-04-28T15:04:10.072Z,82.10
2023-04-28T15:09:12.165Z,80.90
2023-04-28T15:14:14.016Z,78.49
2023-04-28T15:19:15.783Z,76.02
2023-04-28T15:24:20.856Z,76.80
2023-04-28T15:29:22.726Z,77.93
2023-04-28T15:34:24.536Z,77.36
2023-04-28T15:39:28.362Z,77.40
2023-04-28T15:44:30.758Z,73.41
2023-04-28T15:49:32.817Z,74.67
2023-04-28T15:54:34.634Z,74.43
2023-04-28T15:59:36.680Z,75.16
2023-04-28T16:04:38.893Z,72.12
2023-04-28T16:09:40.899Z,72.83
2023-04-28T16:14:43.069Z,75.82
2023-04-28T16:19:44.863Z,75.45
2023-04-28T16:24:47.446Z,78.22
2023-04-28T16:29:49.254Z,75.37
2023-04-28T16:34:51.723Z,76.55
2023-04-28T16:39:53.781Z,76.00
2023-04-28T16:44:55.838Z,77.04
2023-04-28T16:49:57.824Z,76.47
2023-04-28T16:55:00.519Z,78.36
2023-04-28T17:00:02.335Z,76.79
2023-04-28T17:05:04.328Z,75.17
2023-04-28T17:10:07.168Z,74.11
2023-04-28T17:15:09.545Z,75.72
2023-04-28T17:20:12.070Z,76.79
2023-04-28T17:25:14.224Z,73.68
2023-04-28T17:30:16.151Z,74.01
2023-04-28T17:35:18.260Z,72.89
2023-04-28T17:40:23.999Z,72.77
2023-04-28T17:45:26.383Z,73.87
2023-04-28T17:50:28.659Z,74.08
2023-04-28T17:55:30.388Z,74.63
2023-04-28T18:00:32.252Z,74.76
2023-04-28T18:05:35.958Z,74.19
2023-04-28T18:10:37.816Z,74.20
2023-04-28T18:15:39.597Z,74.20
2023-04-28T18:20:42.923Z,75.60
2023-04-28T18:25:44.567Z,76.94
2023-04-28T18:30:46.168Z,78.30
2023-04-28T18:35:47.815Z,79.33
2023-04-28T18:40:49.470Z,79.59
2023-04-28T18:45:51.502Z,80.91
2023-04-28T18:50:53.851Z,77.59
2023-04-28T18:55:58.088Z,77.05
2023-04-28T19:00:59.795Z,76.63
2023-04-28T19:06:01.534Z,76.17
2023-04-28T19:11:03.220Z,77.47
2023-04-28T19:16:05.137Z,78.51
2023-04-28T19:21:07.712Z,79.65
2023-04-28T19:26:10.476Z,79.70
2023-04-28T19:31:12.250Z,80.50
2023-04-28T19:36:13.939Z,82.64
2023-04-28T19:41:15.666Z,83.94
2023-04-28T19:46:18.058Z,84.71
2023-04-28T19:51:19.712Z,85.82
2023-04-28T19:56:21.380Z,84.77
2023-04-28T20:01:23.525Z,84.41
2023-04-28T20:06:25.228Z,84.34
2023-04-28T20:11:26.922Z,85.18
2023-04-28T20:16:28.705Z,85.81
2023-04-28T20:21:31.543Z,84.91
2023-04-28T20:26:33.229Z,85.79
2023-04-28T20:31:35.427Z,84.43
2023-04-28T20:36:37.926Z,86.11
2023-04-28T20:41:42.754Z,85.90
2023-04-28T20:46:45.386Z,86.80
2023-04-28T20:51:47.871Z,87.55
2023-04-28T20:56:49.529Z,89.11
2023-04-28T21:01:51.202Z,91.29
2023-04-28T21:06:53.331Z,93.32
2023-04-28T21:11:55.275Z,95.33
2023-04-28T21:16:58.433Z,95.86
2023-04-28T21:22:00.220Z,96.25
2023-04-28T21:27:02.800Z,96.58
2023-04-28T21:32:04.905Z,96.53
2023-04-28T21:37:06.699Z,96.71
2023-04-28T21:42:21.537Z,97.99
2023-04-28T21:47:25.004Z,98.20
2023-04-28T21:52:26.853Z,99.13
2023-04-28T21:57:28.600Z,99.23
2023-04-28T22:02:41.348Z,99.95
2023-04-28T22:07:43.186Z,99.29
2023-04-28T22:12:45.008Z,99.28
2023-04-28T22:17:46.855Z,98.54
2023-04-28T22:22:48.483Z,95.74
2023-04-28T22:27:50.187Z,94.20
2023-04-28T22:32:52.071Z,96.32
2023-04-28T22:37:53.876Z,97.32
2023-04-28T22:42:55.517Z,98.23
2023-04-28T22:47:57.355Z,99.66
2023-04-28T22:52:59.092Z,96.46
2023-04-28T22:58:00.784Z,99.41
2023-04-28T23:03:04.627Z,100.00
2023-04-28T23:08:06.401Z,100.00
2023-04-28T23:13:08.036Z,100.00
2023-04-28T23:18:09.704Z,100.00
2023-04-28T23:23:11.585Z,100.00
2023-04-28T23:28:13.457Z,100.00
2023-04-28T23:33:15.126Z,100.00
2023-04-28T23:38:16.815Z,100.00
2023-04-28T23:43:18.478Z,100.00
2023-04-28T23:48:20.153Z,100.00
2023-04-28T23:53:21.819Z,100.00
2023-04-28T23:58:23.500Z,100.00
